Estación Meteorológica Peña el Pijo (Robertgarden) [ 02/02/23 21:58:12 CET ]

Fecha Hora Presion(HPa) Temp (°C) Humedad % Rocio (°C) Viento ( m/s) Direccion Lluvia 1Hora(mm) Lluvia 24H(mm) LLuvia Total(mm)
2010-Jun-27 01:01:13 1012.000 12.8 58 4.7         120.17
2010-Jun-27 02:01:18 1011.700 11.6 62 4.5         120.17
2010-Jun-27 03:04:21 1011.500 10.3 66 4.2         120.17
2010-Jun-27 04:01:11 1011.300 9.3 67 3.5         120.17
2010-Jun-27 05:01:16 1011.400 8.8 68 3.2         120.17
2010-Jun-27 06:01:11 1011.400 8.1 68 2.5         120.17
2010-Jun-27 07:01:16 1011.400 7.6 68 2.1         120.17
2010-Jun-27 08:01:13 1011.700 9.5 68 3.9         120.17
2010-Jun-27 09:01:12 1011.900 16.4 50 6.0         120.17
2010-Jun-27 10:01:14 1011.800 21.4 34 4.8         120.17
2010-Jun-27 11:01:15 1011.900 25.2 25 3.6         120.17
2010-Jun-27 12:01:16 1012.000 26.4 18 -0.2         120.17
2010-Jun-27 13:01:16 1012.200 28.6 14 -2.2         120.17
2010-Jun-27 14:01:13 1012.400 30.0 13 -2.0 0.9 NE     120.17
2010-Jun-27 15:01:16 1012.500 28.9 20 3.7 2.6 NE     120.17
2010-Jun-27 16:01:17 1012.400 24.9 28 5.0 1.4 ENE     120.17
2010-Jun-27 17:01:11 1012.300 20.1 53 10.2         120.17
2010-Jun-27 18:01:12 1011.600 27.2 27 6.4         120.17
2010-Jun-27 19:01:14 1011.800 25.5 27 5.0         120.17
2010-Jun-27 20:01:14 1012.300 24.1 30 5.5         120.17
2010-Jun-27 21:01:14 1012.500 21.5 29 2.7         120.17
2010-Jun-27 22:01:13 1013.000 17.9 41 4.4         120.17
2010-Jun-27 23:01:13 1013.800 15.6 51 5.5         120.17

Temperatura Máxima:30°    Temperatura Mínima:
Presión Máxima:1013.800 Hpa    Presión Mínima:1011.300 Hpa


Volver